sensor_id;sensor_type;location;lat;lon;timestamp;pressure;altitude;pressure_sealevel;temperature;humidity
54308;BME280;40208;39.778;2.710;2024-03-08T00:01:13;100575.94;;;14.73;100.00
54308;BME280;40208;39.778;2.710;2024-03-08T00:03:58;100577.16;;;14.81;100.00
54308;BME280;40208;39.778;2.710;2024-03-08T00:06:43;100470.16;;;14.16;100.00
54308;BME280;40208;39.778;2.710;2024-03-08T00:09:30;100335.66;;;13.23;100.00
54308;BME280;40208;39.778;2.710;2024-03-08T00:12:15;100581.75;;;14.79;100.00
54308;BME280;40208;39.778;2.710;2024-03-08T00:15:00;100466.34;;;14.20;100.00
54308;BME280;40208;39.778;2.710;2024-03-08T00:17:46;100251.59;;;12.76;100.00
54308;BME280;40208;39.778;2.710;2024-03-08T00:20:32;100202.34;;;12.68;100.00
54308;BME280;40208;39.778;2.710;2024-03-08T00:23:18;100168.91;;;12.36;100.00
54308;BME280;40208;39.778;2.710;2024-03-08T00:26:03;100163.00;;;12.45;100.00
54308;BME280;40208;39.778;2.710;2024-03-08T00:28:49;100442.09;;;14.23;100.00
54308;BME280;40208;39.778;2.710;2024-03-08T00:31:34;100307.88;;;13.12;100.00
54308;BME280;40208;39.778;2.710;2024-03-08T00:34:20;100347.72;;;13.43;100.00
54308;BME280;40208;39.778;2.710;2024-03-08T00:37:05;100567.88;;;14.87;100.00
54308;BME280;40208;39.778;2.710;2024-03-08T00:39:51;100276.19;;;13.08;100.00
54308;BME280;40208;39.778;2.710;2024-03-08T00:42:37;100271.53;;;12.97;100.00
54308;BME280;40208;39.778;2.710;2024-03-08T00:45:23;100229.94;;;12.67;100.00
54308;BME280;40208;39.778;2.710;2024-03-08T00:48:08;100597.81;;;14.92;100.00
54308;BME280;40208;39.778;2.710;2024-03-08T00:50:54;100549.28;;;14.58;100.00
54308;BME280;40208;39.778;2.710;2024-03-08T00:53:39;100317.28;;;13.18;100.00
54308;BME280;40208;39.778;2.710;2024-03-08T00:56:25;100586.28;;;14.92;100.00
54308;BME280;40208;39.778;2.710;2024-03-08T00:59:11;100301.78;;;13.10;100.00
54308;BME280;40208;39.778;2.710;2024-03-08T01:01:56;100584.72;;;15.02;100.00
54308;BME280;40208;39.778;2.710;2024-03-08T01:04:42;100018.25;;;11.77;100.00
54308;BME280;40208;39.778;2.710;2024-03-08T01:07:27;100336.25;;;13.69;100.00
54308;BME280;40208;39.778;2.710;2024-03-08T01:10:12;100232.09;;;13.16;100.00
54308;BME280;40208;39.778;2.710;2024-03-08T01:12:57;100246.31;;;13.17;100.00
54308;BME280;40208;39.778;2.710;2024-03-08T01:15:44;100313.66;;;13.75;100.00
54308;BME280;40208;39.778;2.710;2024-03-08T01:18:30;100521.84;;;14.96;100.00
54308;BME280;40208;39.778;2.710;2024-03-08T01:21:15;100218.06;;;13.42;100.00
54308;BME280;40208;39.778;2.710;2024-03-08T01:24:00;100299.34;;;14.03;100.00
54308;BME280;40208;39.778;2.710;2024-03-08T01:26:46;100188.53;;;13.18;100.00
54308;BME280;40208;39.778;2.710;2024-03-08T01:29:31;100250.78;;;13.71;100.00
54308;BME280;40208;39.778;2.710;2024-03-08T01:32:17;100238.81;;;13.64;100.00
54308;BME280;40208;39.778;2.710;2024-03-08T01:35:04;100472.88;;;14.96;100.00
54308;BME280;40208;39.778;2.710;2024-03-08T01:37:49;100481.13;;;14.93;100.00
54308;BME280;40208;39.778;2.710;2024-03-08T01:40:34;100472.97;;;14.94;100.00
54308;BME280;40208;39.778;2.710;2024-03-08T01:43:20;100465.72;;;14.96;100.00
54308;BME280;40208;39.778;2.710;2024-03-08T01:46:05;100415.53;;;14.61;100.00
54308;BME280;40208;39.778;2.710;2024-03-08T01:48:52;100143.47;;;13.00;100.00
54308;BME280;40208;39.778;2.710;2024-03-08T01:51:38;100201.41;;;13.38;100.00
54308;BME280;40208;39.778;2.710;2024-03-08T01:54:26;100421.44;;;14.67;100.00
54308;BME280;40208;39.778;2.710;2024-03-08T01:57:11;100044.75;;;12.49;100.00
54308;BME280;40208;39.778;2.710;2024-03-08T01:59:57;100277.53;;;13.96;100.00
54308;BME280;40208;39.778;2.710;2024-03-08T02:02:42;100356.22;;;14.43;100.00
54308;BME280;40208;39.778;2.710;2024-03-08T02:05:29;100294.81;;;13.91;100.00
54308;BME280;40208;39.778;2.710;2024-03-08T02:08:15;100431.41;;;14.90;100.00
54308;BME280;40208;39.778;2.710;2024-03-08T02:11:00;100361.72;;;14.28;100.00
54308;BME280;40208;39.778;2.710;2024-03-08T02:13:46;100342.50;;;14.35;100.00
54308;BME280;40208;39.778;2.710;2024-03-08T02:16:32;99949.16;;;11.92;100.00
54308;BME280;40208;39.778;2.710;2024-03-08T02:19:17;100272.19;;;13.84;100.00
54308;BME280;40208;39.778;2.710;2024-03-08T02:22:05;100423.16;;;14.80;100.00
54308;BME280;40208;39.778;2.710;2024-03-08T02:24:51;100337.06;;;14.24;100.00
54308;BME280;40208;39.778;2.710;2024-03-08T02:27:35;100436.84;;;14.89;100.00
54308;BME280;40208;39.778;2.710;2024-03-08T02:30:21;100049.78;;;12.54;100.00
54308;BME280;40208;39.778;2.710;2024-03-08T02:33:07;100318.25;;;14.26;100.00
54308;BME280;40208;39.778;2.710;2024-03-08T02:35:54;100127.16;;;12.92;100.00
54308;BME280;40208;39.778;2.710;2024-03-08T02:38:40;99966.22;;;11.73;100.00
54308;BME280;40208;39.778;2.710;2024-03-08T02:41:26;100448.16;;;14.79;100.00
54308;BME280;40208;39.778;2.710;2024-03-08T02:44:11;100411.00;;;14.89;100.00
54308;BME280;40208;39.778;2.710;2024-03-08T02:46:56;100401.69;;;14.95;100.00
54308;BME280;40208;39.778;2.710;2024-03-08T02:49:42;100280.56;;;14.30;100.00
54308;BME280;40208;39.778;2.710;2024-03-08T02:52:27;100157.28;;;13.34;100.00
54308;BME280;40208;39.778;2.710;2024-03-08T02:55:12;100382.97;;;14.95;100.00
54308;BME280;40208;39.778;2.710;2024-03-08T02:58:00;100380.44;;;14.93;100.00
54308;BME280;40208;39.778;2.710;2024-03-08T03:00:45;100083.56;;;13.20;100.00
54308;BME280;40208;39.778;2.710;2024-03-08T03:03:30;100291.16;;;14.32;100.00
54308;BME280;40208;39.778;2.710;2024-03-08T03:06:15;100367.91;;;14.94;100.00
54308;BME280;40208;39.778;2.710;2024-03-08T03:09:00;100356.91;;;14.98;100.00
54308;BME280;40208;39.778;2.710;2024-03-08T03:11:46;100346.22;;;14.98;100.00
54308;BME280;40208;39.778;2.710;2024-03-08T03:14:31;100203.59;;;14.24;100.00
54308;BME280;40208;39.778;2.710;2024-03-08T03:17:16;100023.97;;;13.21;100.00
54308;BME280;40208;39.778;2.710;2024-03-08T03:20:01;100318.19;;;15.04;100.00
54308;BME280;40208;39.778;2.710;2024-03-08T03:22:53;100292.38;;;14.79;100.00
54308;BME280;40208;39.778;2.710;2024-03-08T03:25:41;100364.59;;;15.03;100.00
54308;BME280;40208;39.778;2.710;2024-03-08T03:28:26;100076.91;;;13.40;100.00
54308;BME280;40208;39.778;2.710;2024-03-08T03:31:12;100344.59;;;15.09;100.00
54308;BME280;40208;39.778;2.710;2024-03-08T03:33:59;100344.91;;;15.04;100.00
54308;BME280;40208;39.778;2.710;2024-03-08T03:36:46;100360.00;;;15.05;100.00
54308;BME280;40208;39.778;2.710;2024-03-08T03:39:31;100271.84;;;14.41;100.00
54308;BME280;40208;39.778;2.710;2024-03-08T03:42:16;100373.47;;;15.03;100.00
54308;BME280;40208;39.778;2.710;2024-03-08T03:45:01;100376.13;;;15.03;100.00
54308;BME280;40208;39.778;2.710;2024-03-08T03:47:48;100394.75;;;15.05;100.00
54308;BME280;40208;39.778;2.710;2024-03-08T03:50:33;100385.66;;;14.95;100.00
54308;BME280;40208;39.778;2.710;2024-03-08T03:53:20;100324.84;;;14.60;100.00
54308;BME280;40208;39.778;2.710;2024-03-08T03:56:05;100163.75;;;13.70;100.00
54308;BME280;40208;39.778;2.710;2024-03-08T03:58:51;100392.06;;;14.92;100.00
54308;BME280;40208;39.778;2.710;2024-03-08T04:01:36;100293.69;;;14.20;100.00
54308;BME280;40208;39.778;2.710;2024-03-08T04:04:21;100286.34;;;14.24;100.00
54308;BME280;40208;39.778;2.710;2024-03-08T04:07:06;100406.94;;;14.96;100.00
54308;BME280;40208;39.778;2.710;2024-03-08T04:09:51;100421.25;;;14.95;100.00
54308;BME280;40208;39.778;2.710;2024-03-08T04:12:35;100416.00;;;14.94;100.00
54308;BME280;40208;39.778;2.710;2024-03-08T04:15:20;100305.88;;;14.12;100.00
54308;BME280;40208;39.778;2.710;2024-03-08T04:18:05;100450.75;;;14.94;100.00
54308;BME280;40208;39.778;2.710;2024-03-08T04:20:50;100434.19;;;14.89;100.00
54308;BME280;40208;39.778;2.710;2024-03-08T04:23:35;100443.06;;;14.89;100.00
54308;BME280;40208;39.778;2.710;2024-03-08T04:26:20;100340.56;;;14.12;100.00
54308;BME280;40208;39.778;2.710;2024-03-08T04:29:05;100371.75;;;14.24;100.00
54308;BME280;40208;39.778;2.710;2024-03-08T04:31:50;100472.22;;;14.79;100.00
54308;BME280;40208;39.778;2.710;2024-03-08T04:34:38;100479.34;;;14.66;100.00
54308;BME280;40208;39.778;2.710;2024-03-08T04:37:23;100463.78;;;14.46;100.00
54308;BME280;40208;39.778;2.710;2024-03-08T04:40:08;100483.28;;;14.33;100.00
54308;BME280;40208;39.778;2.710;2024-03-08T04:42:53;100391.16;;;13.86;100.00
54308;BME280;40208;39.778;2.710;2024-03-08T04:45:38;100484.88;;;14.63;100.00
54308;BME280;40208;39.778;2.710;2024-03-08T04:48:23;100158.09;;;12.39;100.00
54308;BME280;40208;39.778;2.710;2024-03-08T04:51:10;100349.75;;;13.39;100.00
54308;BME280;40208;39.778;2.710;2024-03-08T04:53:55;100435.78;;;13.70;100.00
54308;BME280;40208;39.778;2.710;2024-03-08T04:56:43;100360.47;;;13.52;100.00
54308;BME280;40208;39.778;2.710;2024-03-08T04:59:28;100460.41;;;14.29;100.00
54308;BME280;40208;39.778;2.710;2024-03-08T05:02:13;100452.94;;;14.34;100.00
54308;BME280;40208;39.778;2.710;2024-03-08T05:04:58;100415.16;;;13.86;100.00
54308;BME280;40208;39.778;2.710;2024-03-08T05:07:43;100365.28;;;13.74;100.00
54308;BME280;40208;39.778;2.710;2024-03-08T05:10:29;100455.06;;;14.29;100.00
54308;BME280;40208;39.778;2.710;2024-03-08T05:13:14;100324.00;;;13.52;100.00
54308;BME280;40208;39.778;2.710;2024-03-08T05:16:00;100376.28;;;14.09;100.00
54308;BME280;40208;39.778;2.710;2024-03-08T05:18:45;100368.03;;;14.27;100.00
54308;BME280;40208;39.778;2.710;2024-03-08T05:21:31;100368.78;;;14.29;100.00
54308;BME280;40208;39.778;2.710;2024-03-08T05:24:16;100384.75;;;14.16;100.00
54308;BME280;40208;39.778;2.710;2024-03-08T05:27:02;100382.91;;;14.04;100.00
54308;BME280;40208;39.778;2.710;2024-03-08T05:29:48;100392.72;;;14.03;100.00
54308;BME280;40208;39.778;2.710;2024-03-08T05:32:32;100411.88;;;14.10;100.00
54308;BME280;40208;39.778;2.710;2024-03-08T05:35:17;100412.19;;;14.18;100.00
54308;BME280;40208;39.778;2.710;2024-03-08T05:38:03;100428.63;;;14.12;100.00
54308;BME280;40208;39.778;2.710;2024-03-08T05:40:48;100416.53;;;14.06;100.00
54308;BME280;40208;39.778;2.710;2024-03-08T05:43:33;100332.19;;;13.49;100.00
54308;BME280;40208;39.778;2.710;2024-03-08T05:46:17;100414.81;;;14.05;100.00
54308;BME280;40208;39.778;2.710;2024-03-08T05:49:03;100403.50;;;14.02;100.00
54308;BME280;40208;39.778;2.710;2024-03-08T05:51:49;100424.03;;;14.14;100.00
54308;BME280;40208;39.778;2.710;2024-03-08T05:54:34;100455.13;;;14.15;100.00
54308;BME280;40208;39.778;2.710;2024-03-08T05:57:19;100456.09;;;13.99;100.00
54308;BME280;40208;39.778;2.710;2024-03-08T06:00:04;100397.03;;;13.50;100.00
54308;BME280;40208;39.778;2.710;2024-03-08T06:02:49;100385.47;;;13.36;100.00
54308;BME280;40208;39.778;2.710;2024-03-08T06:05:33;100443.06;;;13.81;100.00
54308;BME280;40208;39.778;2.710;2024-03-08T06:08:18;100395.31;;;13.20;100.00
54308;BME280;40208;39.778;2.710;2024-03-08T06:11:03;100409.53;;;13.35;100.00
54308;BME280;40208;39.778;2.710;2024-03-08T06:13:49;100466.34;;;13.64;100.00
54308;BME280;40208;39.778;2.710;2024-03-08T06:16:34;100249.41;;;12.39;100.00
54308;BME280;40208;39.778;2.710;2024-03-08T06:19:20;100325.09;;;12.92;100.00
54308;BME280;40208;39.778;2.710;2024-03-08T06:22:05;100203.88;;;12.15;100.00
54308;BME280;40208;39.778;2.710;2024-03-08T06:24:50;100440.38;;;13.39;100.00
54308;BME280;40208;39.778;2.710;2024-03-08T06:27:35;100444.72;;;13.26;100.00
54308;BME280;40208;39.778;2.710;2024-03-08T06:30:20;100495.09;;;13.59;100.00
54308;BME280;40208;39.778;2.710;2024-03-08T06:33:05;100330.16;;;12.68;100.00
54308;BME280;40208;39.778;2.710;2024-03-08T06:35:52;100488.44;;;13.66;100.00
54308;BME280;40208;39.778;2.710;2024-03-08T06:38:40;100476.72;;;13.54;100.00
54308;BME280;40208;39.778;2.710;2024-03-08T06:41:30;100486.25;;;13.58;100.00
54308;BME280;40208;39.778;2.710;2024-03-08T06:44:16;100407.41;;;13.11;100.00
54308;BME280;40208;39.778;2.710;2024-03-08T06:47:01;100484.16;;;13.64;100.00
54308;BME280;40208;39.778;2.710;2024-03-08T06:49:46;100491.38;;;13.62;100.00
54308;BME280;40208;39.778;2.710;2024-03-08T06:52:31;100498.06;;;13.40;100.00
54308;BME280;40208;39.778;2.710;2024-03-08T06:55:16;100496.94;;;13.58;100.00
54308;BME280;40208;39.778;2.710;2024-03-08T06:58:02;100491.69;;;13.57;100.00
54308;BME280;40208;39.778;2.710;2024-03-08T07:00:47;100475.69;;;13.57;100.00
54308;BME280;40208;39.778;2.710;2024-03-08T07:03:36;100393.72;;;13.03;100.00
54308;BME280;40208;39.778;2.710;2024-03-08T07:06:21;100464.00;;;13.60;100.00
54308;BME280;40208;39.778;2.710;2024-03-08T07:09:05;100476.56;;;13.43;100.00
54308;BME280;40208;39.778;2.710;2024-03-08T07:11:51;100422.78;;;12.78;100.00
54308;BME280;40208;39.778;2.710;2024-03-08T07:14:39;100519.31;;;13.42;100.00
54308;BME280;40208;39.778;2.710;2024-03-08T07:17:28;100461.09;;;13.05;100.00
54308;BME280;40208;39.778;2.710;2024-03-08T07:20:14;100493.78;;;13.07;100.00
54308;BME280;40208;39.778;2.710;2024-03-08T07:23:00;100387.63;;;12.42;100.00
54308;BME280;40208;39.778;2.710;2024-03-08T07:25:45;100539.00;;;13.39;100.00
54308;BME280;40208;39.778;2.710;2024-03-08T07:28:29;100535.28;;;13.27;100.00
54308;BME280;40208;39.778;2.710;2024-03-08T07:31:14;100439.66;;;12.62;100.00
54308;BME280;40208;39.778;2.710;2024-03-08T07:33:59;100529.41;;;13.21;100.00
54308;BME280;40208;39.778;2.710;2024-03-08T07:36:44;100469.78;;;12.93;100.00
54308;BME280;40208;39.778;2.710;2024-03-08T07:39:29;100464.81;;;12.72;100.00
54308;BME280;40208;39.778;2.710;2024-03-08T07:42:13;100563.19;;;13.36;100.00
54308;BME280;40208;39.778;2.710;2024-03-08T07:44:58;100513.47;;;13.05;100.00
54308;BME280;40208;39.778;2.710;2024-03-08T07:47:44;100406.00;;;12.31;100.00
54308;BME280;40208;39.778;2.710;2024-03-08T07:50:29;100447.44;;;12.51;100.00
54308;BME280;40208;39.778;2.710;2024-03-08T07:53:14;100553.47;;;12.43;100.00
54308;BME280;40208;39.778;2.710;2024-03-08T07:55:59;100548.44;;;12.84;100.00
54308;BME280;40208;39.778;2.710;2024-03-08T07:58:44;100569.06;;;12.81;100.00
54308;BME280;40208;39.778;2.710;2024-03-08T08:01:30;100313.94;;;10.87;100.00
54308;BME280;40208;39.778;2.710;2024-03-08T08:04:15;100555.88;;;12.63;100.00
54308;BME280;40208;39.778;2.710;2024-03-08T08:07:03;100369.34;;;11.74;100.00
54308;BME280;40208;39.778;2.710;2024-03-08T08:09:48;100490.75;;;12.23;100.00
54308;BME280;40208;39.778;2.710;2024-03-08T08:12:33;100553.81;;;12.52;100.00
54308;BME280;40208;39.778;2.710;2024-03-08T08:15:18;100563.00;;;12.47;100.00
54308;BME280;40208;39.778;2.710;2024-03-08T08:18:03;100589.03;;;12.42;100.00
54308;BME280;40208;39.778;2.710;2024-03-08T08:20:50;100526.00;;;12.26;100.00
54308;BME280;40208;39.778;2.710;2024-03-08T08:23:34;100570.66;;;12.53;100.00
54308;BME280;40208;39.778;2.710;2024-03-08T08:26:20;100564.53;;;12.67;100.00
54308;BME280;40208;39.778;2.710;2024-03-08T08:29:06;100435.31;;;11.99;100.00
54308;BME280;40208;39.778;2.710;2024-03-08T08:31:50;100513.63;;;12.57;100.00
54308;BME280;40208;39.778;2.710;2024-03-08T08:34:35;100532.63;;;12.81;100.00
54308;BME280;40208;39.778;2.710;2024-03-08T08:37:23;100571.44;;;13.01;100.00
54308;BME280;40208;39.778;2.710;2024-03-08T08:40:09;100056.38;;;9.76;100.00
54308;BME280;40208;39.778;2.710;2024-03-08T08:42:55;100558.78;;;12.75;100.00
54308;BME280;40208;39.778;2.710;2024-03-08T08:45:42;99923.19;;;9.07;100.00
54308;BME280;40208;39.778;2.710;2024-03-08T08:48:28;100395.59;;;11.49;100.00
54308;BME280;40208;39.778;2.710;2024-03-08T08:51:15;100321.97;;;11.35;100.00
54308;BME280;40208;39.778;2.710;2024-03-08T08:54:00;100564.06;;;12.90;100.00
54308;BME280;40208;39.778;2.710;2024-03-08T08:56:45;100477.09;;;12.29;100.00
54308;BME280;40208;39.778;2.710;2024-03-08T08:59:29;100580.63;;;13.26;100.00
54308;BME280;40208;39.778;2.710;2024-03-08T09:02:15;100576.53;;;13.36;100.00
54308;BME280;40208;39.778;2.710;2024-03-08T09:05:01;100489.09;;;12.82;100.00
54308;BME280;40208;39.778;2.710;2024-03-08T09:07:46;100595.75;;;13.41;100.00
54308;BME280;40208;39.778;2.710;2024-03-08T09:10:31;100595.38;;;13.47;100.00
54308;BME280;40208;39.778;2.710;2024-03-08T09:13:16;100308.44;;;11.85;100.00
54308;BME280;40208;39.778;2.710;2024-03-08T09:16:02;100262.09;;;11.43;100.00
54308;BME280;40208;39.778;2.710;2024-03-08T09:18:47;100590.94;;;13.62;100.00
54308;BME280;40208;39.778;2.710;2024-03-08T09:21:33;100351.56;;;12.22;100.00
54308;BME280;40208;39.778;2.710;2024-03-08T09:24:20;100526.41;;;13.27;100.00
54308;BME280;40208;39.778;2.710;2024-03-08T09:27:05;100574.66;;;14.10;100.00
54308;BME280;40208;39.778;2.710;2024-03-08T09:29:50;100576.75;;;14.19;100.00
54308;BME280;40208;39.778;2.710;2024-03-08T09:32:35;100327.28;;;12.71;100.00
54308;BME280;40208;39.778;2.710;2024-03-08T09:35:21;100443.88;;;13.54;100.00
54308;BME280;40208;39.778;2.710;2024-03-08T09:38:06;100475.28;;;13.77;100.00
54308;BME280;40208;39.778;2.710;2024-03-08T09:40:55;100314.94;;;12.85;100.00
54308;BME280;40208;39.778;2.710;2024-03-08T09:43:42;100304.94;;;13.03;100.00
54308;BME280;40208;39.778;2.710;2024-03-08T09:46:26;100389.88;;;13.65;100.00
54308;BME280;40208;39.778;2.710;2024-03-08T09:49:12;100599.34;;;14.96;100.00
54308;BME280;40208;39.778;2.710;2024-03-08T09:51:57;100536.94;;;14.70;100.00
54308;BME280;40208;39.778;2.710;2024-03-08T09:54:42;100340.13;;;13.78;100.00
54308;BME280;40208;39.778;2.710;2024-03-08T09:57:29;100603.06;;;15.34;100.00
54308;BME280;40208;39.778;2.710;2024-03-08T10:00:14;100301.88;;;13.65;100.00
54308;BME280;40208;39.778;2.710;2024-03-08T10:03:09;100389.03;;;14.18;100.00
54308;BME280;40208;39.778;2.710;2024-03-08T10:05:56;100596.97;;;15.44;100.00
54308;BME280;40208;39.778;2.710;2024-03-08T10:08:45;100604.28;;;15.42;100.00
54308;BME280;40208;39.778;2.710;2024-03-08T10:11:30;100285.38;;;13.72;100.00
54308;BME280;40208;39.778;2.710;2024-03-08T10:14:16;100600.97;;;15.64;100.00
54308;BME280;40208;39.778;2.710;2024-03-08T10:17:01;100517.06;;;15.14;100.00
54308;BME280;40208;39.778;2.710;2024-03-08T10:19:50;100614.59;;;16.00;100.00
54308;BME280;40208;39.778;2.710;2024-03-08T10:22:36;100590.06;;;16.06;100.00
54308;BME280;40208;39.778;2.710;2024-03-08T10:25:23;100482.53;;;15.50;100.00
54308;BME280;40208;39.778;2.710;2024-03-08T10:28:09;100604.81;;;16.24;100.00
54308;BME280;40208;39.778;2.710;2024-03-08T10:30:55;100360.97;;;14.78;100.00
54308;BME280;40208;39.778;2.710;2024-03-08T10:33:43;100414.06;;;15.34;100.00
54308;BME280;40208;39.778;2.710;2024-03-08T10:36:28;100588.25;;;16.43;100.00
54308;BME280;40208;39.778;2.710;2024-03-08T10:39:22;100279.13;;;14.65;100.00
54308;BME280;40208;39.778;2.710;2024-03-08T10:42:12;100590.38;;;16.51;100.00
54308;BME280;40208;39.778;2.710;2024-03-08T10:45:15;100349.59;;;15.26;98.86
54308;BME280;40208;39.778;2.710;2024-03-08T10:51:20;100590.97;;;16.80;94.82
54308;BME280;40208;39.778;2.710;2024-03-08T10:54:06;100592.88;;;17.02;91.63
54308;BME280;40208;39.778;2.710;2024-03-08T10:56:51;100495.09;;;16.36;90.84
54308;BME280;40208;39.778;2.710;2024-03-08T10:59:37;100500.22;;;16.39;90.79
54308;BME280;40208;39.778;2.710;2024-03-08T11:02:22;100347.25;;;15.21;91.94
54308;BME280;40208;39.778;2.710;2024-03-08T11:05:10;100594.47;;;17.05;90.75
54308;BME280;40208;39.778;2.710;2024-03-08T11:08:01;100584.31;;;17.21;90.71
54308;BME280;40208;39.778;2.710;2024-03-08T11:10:50;100398.91;;;16.08;90.03
54308;BME280;40208;39.778;2.710;2024-03-08T11:13:41;100346.03;;;15.75;89.40
54308;BME280;40208;39.778;2.710;2024-03-08T11:22:02;100534.09;;;16.88;91.66
54308;BME280;40208;39.778;2.710;2024-03-08T11:24:48;100337.75;;;15.91;90.27
54308;BME280;40208;39.778;2.710;2024-03-08T11:27:33;100596.19;;;17.41;87.57
54308;BME280;40208;39.778;2.710;2024-03-08T11:30:22;100586.94;;;17.45;86.74
54308;BME280;40208;39.778;2.710;2024-03-08T11:33:12;100531.59;;;17.09;86.67
54308;BME280;40208;39.778;2.710;2024-03-08T11:38:57;100545.72;;;17.00;85.20
54308;BME280;40208;39.778;2.710;2024-03-08T11:41:43;100603.66;;;17.49;84.22
54308;BME280;40208;39.778;2.710;2024-03-08T11:44:30;100273.84;;;15.38;86.63
54308;BME280;40208;39.778;2.710;2024-03-08T11:47:16;100603.75;;;17.47;87.21
54308;BME280;40208;39.778;2.710;2024-03-08T11:50:01;100407.91;;;16.31;86.23
54308;BME280;40208;39.778;2.710;2024-03-08T11:52:48;100408.91;;;16.06;82.59
54308;BME280;40208;39.778;2.710;2024-03-08T11:55:33;100607.31;;;17.48;82.94
54308;BME280;40208;39.778;2.710;2024-03-08T11:58:20;100417.63;;;16.08;81.65
54308;BME280;40208;39.778;2.710;2024-03-08T12:01:10;100605.34;;;17.50;80.84
54308;BME280;40208;39.778;2.710;2024-03-08T12:03:57;100614.66;;;17.57;77.45
54308;BME280;40208;39.778;2.710;2024-03-08T12:06:45;100565.03;;;17.16;76.01
54308;BME280;40208;39.778;2.710;2024-03-08T12:09:32;100515.31;;;16.88;77.72
54308;BME280;40208;39.778;2.710;2024-03-08T12:12:17;100357.16;;;15.82;76.54
54308;BME280;40208;39.778;2.710;2024-03-08T12:15:03;100286.88;;;15.43;75.75
54308;BME280;40208;39.778;2.710;2024-03-08T12:17:51;100608.84;;;17.39;75.62
54308;BME280;40208;39.778;2.710;2024-03-08T12:20:36;100371.56;;;16.16;76.16
54308;BME280;40208;39.778;2.710;2024-03-08T12:23:22;100342.00;;;15.94;75.80
54308;BME280;40208;39.778;2.710;2024-03-08T12:26:15;100542.47;;;17.19;76.73
54308;BME280;40208;39.778;2.710;2024-03-08T12:29:25;100579.25;;;17.52;74.91
54308;BME280;40208;39.778;2.710;2024-03-08T12:32:12;100328.44;;;16.08;76.74
54308;BME280;40208;39.778;2.710;2024-03-08T12:34:57;100510.66;;;17.14;77.04
54308;BME280;40208;39.778;2.710;2024-03-08T12:37:42;100490.16;;;17.13;77.13
54308;BME280;40208;39.778;2.710;2024-03-08T12:40:31;100498.97;;;17.26;76.84
54308;BME280;40208;39.778;2.710;2024-03-08T12:43:16;100499.56;;;17.19;76.95
54308;BME280;40208;39.778;2.710;2024-03-08T12:46:02;100313.78;;;16.25;76.44
54308;BME280;40208;39.778;2.710;2024-03-08T12:48:48;100520.53;;;17.25;76.00
54308;BME280;40208;39.778;2.710;2024-03-08T12:51:33;100495.97;;;17.42;75.81
54308;BME280;40208;39.778;2.710;2024-03-08T12:54:18;100523.41;;;17.79;76.56
54308;BME280;40208;39.778;2.710;2024-03-08T12:57:07;100474.44;;;17.20;77.66
54308;BME280;40208;39.778;2.710;2024-03-08T12:59:52;100532.22;;;17.70;78.33
54308;BME280;40208;39.778;2.710;2024-03-08T13:02:41;100551.00;;;17.82;79.49
54308;BME280;40208;39.778;2.710;2024-03-08T13:05:26;100475.09;;;17.46;79.80
54308;BME280;40208;39.778;2.710;2024-03-08T13:08:12;100532.47;;;17.90;79.73
54308;BME280;40208;39.778;2.710;2024-03-08T13:10:57;100517.22;;;17.90;78.19
54308;BME280;40208;39.778;2.710;2024-03-08T13:13:43;100425.44;;;17.17;76.82
54308;BME280;40208;39.778;2.710;2024-03-08T13:16:28;100434.59;;;17.26;77.43
54308;BME280;40208;39.778;2.710;2024-03-08T13:19:14;100504.00;;;17.76;77.32
54308;BME280;40208;39.778;2.710;2024-03-08T13:21:59;100326.31;;;16.71;76.83
54308;BME280;40208;39.778;2.710;2024-03-08T13:24:44;100434.47;;;17.39;75.79
54308;BME280;40208;39.778;2.710;2024-03-08T13:27:29;100455.34;;;17.47;75.72
54308;BME280;40208;39.778;2.710;2024-03-08T13:30:14;100383.91;;;17.23;75.07
54308;BME280;40208;39.778;2.710;2024-03-08T13:33:02;100489.47;;;17.67;76.35
54308;BME280;40208;39.778;2.710;2024-03-08T13:35:49;100460.94;;;17.55;76.75
54308;BME280;40208;39.778;2.710;2024-03-08T13:38:35;100435.22;;;17.30;77.14
54308;BME280;40208;39.778;2.710;2024-03-08T13:41:20;100462.41;;;17.48;72.46
54308;BME280;40208;39.778;2.710;2024-03-08T13:44:09;100493.03;;;17.56;74.26
54308;BME280;40208;39.778;2.710;2024-03-08T13:46:54;100380.22;;;17.02;74.23
54308;BME280;40208;39.778;2.710;2024-03-08T13:49:43;100398.22;;;16.88;73.72
54308;BME280;40208;39.778;2.710;2024-03-08T13:52:28;100434.47;;;17.16;74.17
54308;BME280;40208;39.778;2.710;2024-03-08T13:55:13;100395.69;;;16.98;74.98
54308;BME280;40208;39.778;2.710;2024-03-08T13:57:59;100513.88;;;17.64;72.04
54308;BME280;40208;39.778;2.710;2024-03-08T14:00:44;100460.94;;;17.44;72.26
54308;BME280;40208;39.778;2.710;2024-03-08T14:03:31;100377.53;;;16.90;73.14
54308;BME280;40208;39.778;2.710;2024-03-08T14:06:17;100299.66;;;16.23;73.88
54308;BME280;40208;39.778;2.710;2024-03-08T14:09:02;100482.41;;;17.66;72.14
54308;BME280;40208;39.778;2.710;2024-03-08T14:11:47;100460.44;;;17.38;73.03
54308;BME280;40208;39.778;2.710;2024-03-08T14:14:32;100455.22;;;17.48;73.18
54308;BME280;40208;39.778;2.710;2024-03-08T14:17:18;100385.34;;;17.05;73.47
54308;BME280;40208;39.778;2.710;2024-03-08T14:20:03;100402.88;;;17.20;72.96
54308;BME280;40208;39.778;2.710;2024-03-08T14:22:49;100360.47;;;16.80;72.55
54308;BME280;40208;39.778;2.710;2024-03-08T14:25:35;100418.88;;;17.33;73.91
54308;BME280;40208;39.778;2.710;2024-03-08T14:28:20;100424.25;;;17.33;74.80
54308;BME280;40208;39.778;2.710;2024-03-08T14:31:07;100481.56;;;17.66;76.05